Greenbrier Valley Airport


Codes: KLWB/LWB
Name: Greenbrier Valley Airport
City: Lewisburg
Country: United States
Elevation: 2302 ft.
Wikipedia:

Photos at Greenbrier Valley Airport


   Photos courtesy of SpottingLog. You can add your own sightings and photos by signing up for a free trial today.



No photos found.

Weather at Greenbrier Valley Airport


Time (UTC)DescriptionTempratureWindCloud coverageVisibilityPressureHumidity
21-Jun-2024 12:00Clear Sky16°C0 mph, W0%10000m1028hPa97%
21-Jun-2024 15:00Clear Sky20°C2 mph, S0%10000m1027hPa81%
21-Jun-2024 18:00Clear Sky27°C2 mph, S0%10000m1023hPa57%
21-Jun-2024 21:00Scattered Clouds29°C7 mph, N36%10000m1020hPa46%
22-Jun-2024 00:00Scattered Clouds24°C2 mph, N49%10000m1020hPa73%
22-Jun-2024 03:00Scattered Clouds21°C0 mph, N29%10000m1021hPa76%
22-Jun-2024 06:00Few Clouds19°C0 mph, SW22%10000m1021hPa81%
22-Jun-2024 09:00Clear Sky18°C0 mph, W10%10000m1021hPa86%
22-Jun-2024 12:00Clear Sky22°C0 mph, SW5%10000m1021hPa73%
22-Jun-2024 15:00Clear Sky29°C4 mph, SW0%10000m1019hPa45%
22-Jun-2024 18:00Clear Sky33°C7 mph, SW0%10000m1016hPa29%
22-Jun-2024 21:00Scattered Clouds33°C2 mph, NW38%10000m1014hPa30%
23-Jun-2024 00:00Broken Clouds25°C4 mph, W67%10000m1015hPa61%
23-Jun-2024 03:00Overcast Clouds23°C2 mph, SW99%10000m1015hPa67%
23-Jun-2024 06:00Broken Clouds20°C2 mph, W73%10000m1015hPa82%
23-Jun-2024 09:00Few Clouds18°C2 mph, W20%10000m1014hPa92%
23-Jun-2024 12:00Scattered Clouds22°C2 mph, SW39%10000m1014hPa76%
23-Jun-2024 15:00Overcast Clouds29°C9 mph, W94%10000m1013hPa46%
23-Jun-2024 18:00Overcast Clouds31°C11 mph, W97%10000m1010hPa37%
23-Jun-2024 21:00Overcast Clouds30°C13 mph, W100%10000m1010hPa41%
24-Jun-2024 00:00Overcast Clouds24°C4 mph, W100%10000m1010hPa70%
24-Jun-2024 03:00Light Rain19°C2 mph, W70%10000m1011hPa92%
24-Jun-2024 06:00Light Rain18°C4 mph, SW79%10000m1010hPa97%
24-Jun-2024 09:00Few Clouds18°C2 mph, SW23%10000m1010hPa99%
24-Jun-2024 12:00Light Rain20°C2 mph, W62%10000m1011hPa97%
24-Jun-2024 15:00Light Rain24°C11 mph, NW64%10000m1012hPa66%
24-Jun-2024 18:00Scattered Clouds27°C11 mph, NW32%10000m1011hPa42%
24-Jun-2024 21:00Clear Sky28°C11 mph, NW0%10000m1010hPa39%
25-Jun-2024 00:00Clear Sky22°C4 mph, NW0%10000m1012hPa68%
25-Jun-2024 03:00Clear Sky17°C2 mph, NE0%10000m1014hPa82%
25-Jun-2024 06:00Clear Sky15°C2 mph, NE0%10000m1015hPa89%
25-Jun-2024 09:00Clear Sky14°C2 mph, NW0%10000m1015hPa93%
25-Jun-2024 12:00Clear Sky19°C0 mph, W1%10000m1015hPa76%
25-Jun-2024 15:00Clear Sky27°C2 mph, SW1%10000m1015hPa47%
25-Jun-2024 18:00Clear Sky31°C4 mph, SW1%10000m1013hPa34%
25-Jun-2024 21:00Clear Sky32°C4 mph, W0%10000m1011hPa30%
26-Jun-2024 00:00Clear Sky25°C2 mph, NW1%10000m1011hPa64%
26-Jun-2024 03:00Clear Sky21°C2 mph, E0%10000m1012hPa69%
26-Jun-2024 06:00Clear Sky19°C2 mph, NE0%10000m1013hPa74%
26-Jun-2024 09:00Clear Sky17°C0 mph, W0%10000m1012hPa80%